Time;durP1;ratioP1;P1;durP2;ratioP2;P2;SDS_P1;SDS_P2;PMS_P1;PMS_P2;Temp;Humidity;BMP_temperature;BMP_pressure;BME280_temperature;BME280_humidity;BME280_pressure;Samples;Min_cycle;Max_cycle;Signal;HPM_P1;HPM_P2
2023/04/07 00:00:47;;;;;;;10.63;6.37;;;9.40;99.90;;;;;;5081975;28;20198;-57
2023/04/07 00:03:15;;;;;;;9.20;5.73;;;9.30;99.90;;;;;;5094984;28;20205;-58
2023/04/07 00:05:42;;;;;;;10.47;6.00;;;9.30;99.90;;;;;;5094569;28;20230;-57
2023/04/07 00:08:09;;;;;;;11.57;6.13;;;9.40;99.90;;;;;;5095868;28;20331;-58
2023/04/07 00:10:36;;;;;;;12.27;5.50;;;9.30;99.90;;;;;;5093360;28;20225;-58
2023/04/07 00:13:03;;;;;;;8.83;5.40;;;9.20;99.90;;;;;;5093891;28;20321;-57
2023/04/07 00:15:30;;;;;;;13.43;6.70;;;9.30;99.90;;;;;;5093619;28;20682;-57
2023/04/07 00:17:57;;;;;;;8.07;6.23;;;9.30;99.90;;;;;;5074732;28;20686;-57
2023/04/07 00:20:24;;;;;;;16.00;6.20;;;9.40;99.90;;;;;;5096249;28;20252;-58
2023/04/07 00:22:51;;;;;;;9.40;6.17;;;9.40;99.90;;;;;;5078471;28;20233;-57
2023/04/07 00:25:18;;;;;;;9.73;6.63;;;9.40;99.90;;;;;;5095735;28;20210;-58
2023/04/07 00:27:44;;;;;;;11.53;6.33;;;9.40;99.90;;;;;;5094769;28;20216;-58
2023/04/07 00:30:11;;;;;;;9.83;6.03;;;9.40;99.90;;;;;;5095630;28;20202;-57
2023/04/07 00:32:38;;;;;;;10.13;5.30;;;9.30;99.90;;;;;;5096808;28;20827;-58
2023/04/07 00:35:06;;;;;;;10.17;5.57;;;9.30;99.90;;;;;;5096403;28;20211;-58
2023/04/07 00:37:32;;;;;;;10.67;5.53;;;9.30;99.90;;;;;;5095009;28;20196;-57
2023/04/07 00:39:59;;;;;;;8.57;4.80;;;9.40;99.90;;;;;;5091665;28;20255;-58
2023/04/07 00:42:26;;;;;;;9.10;4.80;;;9.40;99.90;;;;;;5093933;28;20296;-57
2023/04/07 00:44:53;;;;;;;9.70;5.37;;;9.40;99.90;;;;;;5090760;28;20767;-58
2023/04/07 00:47:20;;;;;;;12.27;5.70;;;9.30;99.90;;;;;;5074222;28;20638;-58
2023/04/07 00:49:47;;;;;;;7.57;5.77;;;9.30;99.90;;;;;;5085484;28;20745;-57
2023/04/07 00:52:15;;;;;;;9.57;5.97;;;9.30;99.90;;;;;;5092166;28;20320;-57
2023/04/07 00:54:43;;;;;;;7.90;5.70;;;9.20;99.90;;;;;;5072807;28;20258;-58
2023/04/07 00:57:10;;;;;;;10.77;5.67;;;9.20;99.90;;;;;;5094042;28;20304;-57
2023/04/07 00:59:37;;;;;;;9.07;5.47;;;9.30;99.90;;;;;;5091734;28;20281;-57
2023/04/07 01:02:20;;;;;;;12.13;5.63;;;9.20;99.90;;;;;;5095392;28;20228;-62
2023/04/07 01:05:20;;;;;;;6.80;4.83;;;9.20;99.90;;;;;;5077368;28;20258;-57
2023/04/07 01:08:04;;;;;;;8.47;5.00;;;9.20;99.90;;;;;;5080047;28;20216;-57
2023/04/07 01:10:53;;;;;;;7.73;4.77;;;9.20;99.90;;;;;;5090047;28;20210;-58
2023/04/07 01:13:29;;;;;;;7.47;4.20;;;9.20;99.90;;;;;;5074016;28;20708;-58
2023/04/07 01:15:59;;;;;;;7.97;3.50;;;9.10;99.90;;;;;;5090905;28;20779;-58
2023/04/07 01:18:33;;;;;;;6.53;2.90;;;9.00;99.90;;;;;;5097050;28;20220;-58
2023/04/07 01:21:05;;;;;;;4.67;3.00;;;9.00;99.90;;;;;;5094756;28;20247;-58
2023/04/07 01:23:50;;;;;;;3.90;2.20;;;9.00;99.90;;;;;;5093836;28;20261;-58
2023/04/07 01:26:32;;;;;;;5.10;3.13;;;9.00;99.90;;;;;;5092401;28;20213;-59
2023/04/07 01:29:24;;;;;;;10.07;2.83;;;9.00;99.90;;;;;;5083667;28;20558;-58
2023/04/07 01:31:54;;;;;;;5.13;3.90;;;9.00;99.90;;;;;;5084165;28;20366;-58
2023/04/07 01:34:24;;;;;;;7.90;3.60;;;9.00;99.90;;;;;;5091795;28;20211;-58
2023/04/07 01:36:53;;;;;;;6.60;3.30;;;9.00;99.90;;;;;;5096242;28;20257;-58
2023/04/07 01:39:21;;;;;;;5.73;3.70;;;9.00;99.90;;;;;;5098735;28;20195;-58
2023/04/07 01:41:51;;;;;;;7.10;3.70;;;8.90;99.90;;;;;;5095403;27;20279;-58
2023/04/07 01:44:20;;;;;;;9.53;3.80;;;9.00;99.90;;;;;;5078477;28;20767;-58
2023/04/07 01:46:49;;;;;;;6.57;3.37;;;9.00;99.90;;;;;;5096163;28;20202;-58
2023/04/07 01:49:17;;;;;;;6.10;3.67;;;9.10;99.90;;;;;;5080321;28;20198;-58
2023/04/07 01:51:49;;;;;;;6.53;3.57;;;9.00;99.90;;;;;;5077597;28;20201;-59
2023/04/07 01:54:17;;;;;;;6.87;3.23;;;9.00;99.90;;;;;;5076877;28;20218;-58
2023/04/07 01:56:44;;;;;;;5.33;3.33;;;9.10;99.90;;;;;;5097386;28;20239;-58
2023/04/07 01:59:11;;;;;;;5.13;3.57;;;9.10;99.90;;;;;;5095981;28;20276;-58
2023/04/07 02:01:38;;;;;;;7.97;4.27;;;9.10;99.90;;;;;;5094941;28;20208;-58
2023/04/07 02:04:24;;;;;;;6.67;3.60;;;9.00;99.90;;;;;;5094845;28;20289;-59
2023/04/07 02:06:57;;;;;;;8.70;3.87;;;9.00;99.90;;;;;;5094820;28;20266;-58
2023/04/07 02:09:26;;;;;;;6.30;4.10;;;9.00;99.90;;;;;;5080111;28;20202;-58
2023/04/07 02:11:56;;;;;;;8.67;4.83;;;9.00;99.90;;;;;;5098945;28;20238;-58
2023/04/07 02:14:23;;;;;;;9.70;4.37;;;9.00;99.90;;;;;;5096211;28;20220;-58
2023/04/07 02:16:52;;;;;;;9.27;3.87;;;9.00;99.90;;;;;;5098605;28;20201;-58
2023/04/07 02:19:19;;;;;;;10.13;3.87;;;9.10;99.90;;;;;;5094768;28;20311;-58
2023/04/07 02:21:50;;;;;;;9.80;4.60;;;9.10;99.90;;;;;;5099255;28;20249;-59
2023/04/07 02:24:20;;;;;;;7.47;3.83;;;9.00;99.90;;;;;;5094598;28;20288;-58
2023/04/07 02:26:47;;;;;;;6.27;3.97;;;9.10;99.90;;;;;;5098632;28;20203;-58
2023/04/07 02:29:14;;;;;;;12.93;3.87;;;9.10;99.90;;;;;;5096393;28;20238;-58
2023/04/07 02:31:41;;;;;;;7.67;4.03;;;9.00;99.90;;;;;;5097898;28;20204;-58
2023/04/07 02:34:08;;;;;;;9.57;4.00;;;9.00;99.90;;;;;;5097013;28;20211;-58
2023/04/07 02:36:35;;;;;;;6.67;3.90;;;8.90;99.90;;;;;;5093661;28;20672;-58
2023/04/07 02:39:02;;;;;;;11.13;4.00;;;9.00;99.90;;;;;;5073078;28;20289;-58
2023/04/07 02:41:29;;;;;;;9.33;4.07;;;9.00;99.90;;;;;;5094319;28;20309;-58
2023/04/07 02:43:56;;;;;;;6.83;4.27;;;9.00;99.90;;;;;;5077900;28;21115;-58
2023/04/07 02:46:24;;;;;;;7.77;4.07;;;9.00;99.90;;;;;;5098797;28;20218;-58
2023/04/07 02:48:51;;;;;;;14.30;4.30;;;9.10;99.90;;;;;;5096853;28;20224;-58
2023/04/07 02:51:17;;;;;;;5.93;3.83;;;9.10;99.90;;;;;;5099392;28;20202;-58
2023/04/07 02:53:45;;;;;;;7.83;4.23;;;9.10;99.90;;;;;;5095851;28;20232;-58
2023/04/07 02:56:11;;;;;;;9.87;4.77;;;9.00;99.90;;;;;;5097940;28;20863;-58
2023/04/07 02:58:38;;;;;;;12.23;3.83;;;9.10;99.90;;;;;;5095964;28;20673;-58
2023/04/07 03:01:05;;;;;;;7.63;3.60;;;9.10;99.90;;;;;;5096515;28;20197;-58
2023/04/07 03:03:32;;;;;;;7.90;3.50;;;9.10;99.90;;;;;;5097882;28;20244;-58
2023/04/07 03:05:59;;;;;;;7.07;3.47;;;9.10;99.90;;;;;;5095272;28;20682;-58
2023/04/07 03:08:26;;;;;;;8.37;3.70;;;9.10;99.90;;;;;;5094509;28;20198;-60
2023/04/07 03:10:53;;;;;;;5.73;3.40;;;9.20;99.90;;;;;;5097531;28;20292;-63
2023/04/07 03:13:20;;;;;;;11.40;3.33;;;9.20;99.90;;;;;;5079915;28;20559;-58
2023/04/07 03:15:47;;;;;;;4.40;3.37;;;9.20;99.90;;;;;;5094355;28;20215;-58
2023/04/07 03:18:14;;;;;;;7.93;3.97;;;9.00;99.90;;;;;;5095099;28;20632;-58
2023/04/07 03:20:41;;;;;;;4.33;2.90;;;9.00;99.90;;;;;;5096547;28;20263;-58
2023/04/07 03:23:08;;;;;;;6.80;3.40;;;9.00;99.90;;;;;;5096307;28;20222;-59
2023/04/07 03:25:35;;;;;;;8.63;3.93;;;9.00;99.90;;;;;;5094921;28;20199;-58
2023/04/07 03:28:02;;;;;;;11.83;3.93;;;9.00;99.90;;;;;;5094783;28;20604;-58
2023/04/07 03:30:29;;;;;;;6.90;3.37;;;9.10;99.90;;;;;;5095637;28;20830;-58
2023/04/07 03:32:56;;;;;;;10.87;4.50;;;9.00;99.90;;;;;;5098706;28;20682;-58
2023/04/07 03:35:23;;;;;;;9.27;5.00;;;9.00;99.90;;;;;;5092399;28;20294;-59
2023/04/07 03:37:49;;;;;;;8.83;4.13;;;9.00;99.90;;;;;;5079619;28;20654;-58
2023/04/07 03:40:16;;;;;;;8.23;4.47;;;9.00;99.90;;;;;;5077207;28;20198;-58
2023/04/07 03:42:45;;;;;;;11.23;3.93;;;9.00;99.90;;;;;;5095979;28;20370;-58
2023/04/07 03:45:12;;;;;;;11.30;3.87;;;9.00;99.90;;;;;;5092002;28;20232;-58
2023/04/07 03:47:39;;;;;;;10.13;4.30;;;9.00;99.90;;;;;;5096457;28;21128;-58
2023/04/07 03:50:06;;;;;;;9.97;4.20;;;9.00;99.90;;;;;;5096615;28;20217;-58
2023/04/07 03:52:33;;;;;;;10.23;3.63;;;8.90;99.90;;;;;;5077967;28;20841;-58
2023/04/07 03:55:00;;;;;;;9.43;4.10;;;9.00;99.90;;;;;;5093979;28;20741;-58
2023/04/07 03:57:27;;;;;;;9.10;4.10;;;8.90;99.90;;;;;;5095845;28;22119;-58
2023/04/07 03:59:55;;;;;;;7.70;3.73;;;8.80;99.90;;;;;;5082441;28;20191;-58
2023/04/07 04:02:22;;;;;;;9.20;4.50;;;8.90;99.90;;;;;;5077222;28;20197;-58
2023/04/07 04:04:49;;;;;;;9.00;4.20;;;9.00;99.90;;;;;;5095308;28;20229;-58
2023/04/07 04:07:16;;;;;;;8.07;4.00;;;8.90;99.90;;;;;;5095019;28;20202;-58
2023/04/07 04:09:42;;;;;;;7.80;3.73;;;8.90;99.90;;;;;;5094769;28;20209;-58
2023/04/07 04:12:09;;;;;;;11.83;5.40;;;8.90;99.90;;;;;;5095153;28;20249;-58
2023/04/07 04:14:36;;;;;;;8.00;4.43;;;9.10;99.90;;;;;;5092350;28;20218;-58
2023/04/07 04:17:03;;;;;;;13.10;4.27;;;9.00;99.90;;;;;;5095257;28;20314;-58
2023/04/07 04:19:31;;;;;;;11.43;4.23;;;9.00;99.90;;;;;;5096464;28;20290;-58
2023/04/07 04:21:58;;;;;;;11.27;4.03;;;9.00;99.90;;;;;;5094746;28;20285;-57
2023/04/07 04:24:25;;;;;;;7.17;4.00;;;8.90;99.90;;;;;;5094382;28;20208;-58
2023/04/07 04:26:51;;;;;;;7.60;4.60;;;8.90;99.90;;;;;;5094744;28;20743;-58
2023/04/07 04:29:18;;;;;;;9.37;3.83;;;8.90;99.90;;;;;;5093650;28;20252;-59
2023/04/07 04:31:45;;;;;;;10.07;4.20;;;8.90;99.90;;;;;;5094743;28;20232;-58
2023/04/07 04:34:12;;;;;;;7.60;4.80;;;8.80;99.90;;;;;;5088364;28;20258;-58
2023/04/07 04:36:40;;;;;;;11.70;4.37;;;8.70;99.90;;;;;;5093969;28;20222;-58
2023/04/07 04:39:07;;;;;;;9.43;4.40;;;8.80;99.90;;;;;;5071453;28;20199;-57
2023/04/07 04:41:34;;;;;;;8.93;4.67;;;8.80;99.90;;;;;;5093560;28;20288;-58
2023/04/07 04:44:00;;;;;;;12.10;4.60;;;8.80;99.90;;;;;;5089866;28;20285;-60
2023/04/07 04:46:27;;;;;;;13.47;5.13;;;8.70;99.90;;;;;;5095071;28;20253;-58
2023/04/07 04:48:55;;;;;;;15.40;5.17;;;8.70;99.90;;;;;;5084620;28;20204;-58
2023/04/07 04:51:22;;;;;;;15.40;5.30;;;8.80;99.90;;;;;;5095715;28;20205;-58
2023/04/07 04:53:49;;;;;;;14.70;4.90;;;8.70;99.90;;;;;;5092395;28;21017;-58
2023/04/07 04:56:16;;;;;;;12.17;4.60;;;8.80;99.90;;;;;;5093787;28;20864;-58
2023/04/07 04:58:45;;;;;;;13.73;5.57;;;8.80;99.90;;;;;;5092703;28;20194;-60
2023/04/07 05:01:13;;;;;;;10.40;5.17;;;8.80;99.90;;;;;;5095182;28;20201;-58
2023/04/07 05:03:40;;;;;;;13.30;6.13;;;8.90;99.90;;;;;;5076750;28;20809;-58
2023/04/07 05:06:07;;;;;;;13.23;5.20;;;8.90;99.90;;;;;;5096281;28;20671;-58
2023/04/07 05:08:34;;;;;;;9.87;5.63;;;8.90;99.90;;;;;;5094631;28;20288;-58
2023/04/07 05:11:01;;;;;;;13.00;6.37;;;8.90;99.90;;;;;;5093367;28;20241;-58
2023/04/07 05:13:29;;;;;;;12.50;6.00;;;8.90;99.90;;;;;;5094584;28;20251;-58
2023/04/07 05:15:56;;;;;;;14.90;8.03;;;8.90;99.90;;;;;;5092957;28;20248;-58
2023/04/07 05:18:23;;;;;;;14.70;5.90;;;9.00;99.90;;;;;;5095041;28;20222;-58
2023/04/07 05:20:50;;;;;;;15.73;6.43;;;8.90;99.90;;;;;;5092655;28;20241;-58
2023/04/07 05:23:17;;;;;;;15.10;5.80;;;8.90;99.90;;;;;;5093279;28;20282;-58
2023/04/07 05:25:44;;;;;;;11.80;6.00;;;8.90;99.90;;;;;;5092752;28;20225;-58
2023/04/07 05:28:11;;;;;;;12.83;7.03;;;8.90;99.90;;;;;;5094770;28;20205;-58
2023/04/07 05:30:37;;;;;;;12.07;6.17;;;8.80;99.90;;;;;;5090378;28;20236;-58
2023/04/07 05:33:04;;;;;;;14.83;6.20;;;8.90;99.90;;;;;;5094195;28;20621;-59
2023/04/07 05:35:31;;;;;;;10.53;6.27;;;8.90;99.90;;;;;;5092951;28;20218;-58
2023/04/07 05:37:58;;;;;;;18.27;7.43;;;8.90;99.90;;;;;;5075339;28;20480;-58
2023/04/07 05:40:25;;;;;;;16.53;6.77;;;8.90;99.90;;;;;;5093693;28;20236;-58
2023/04/07 05:42:52;;;;;;;14.13;6.70;;;8.90;99.90;;;;;;5095205;28;20607;-58
2023/04/07 05:45:18;;;;;;;14.17;6.90;;;8.90;99.90;;;;;;5092798;28;20202;-58
2023/04/07 05:47:48;;;;;;;13.40;6.83;;;8.90;99.90;;;;;;5092823;28;20288;-58
2023/04/07 05:50:16;;;;;;;13.30;7.10;;;9.00;99.90;;;;;;5088614;28;20207;-58
2023/04/07 05:52:43;;;;;;;16.80;7.07;;;9.00;99.90;;;;;;5091920;28;20202;-58
2023/04/07 05:55:10;;;;;;;13.77;7.67;;;8.90;99.90;;;;;;5088596;28;20323;-59
2023/04/07 05:57:37;;;;;;;18.70;8.00;;;8.90;99.90;;;;;;4723715;28;9999995;-58
2023/04/07 06:00:04;;;;;;;14.13;7.50;;;9.00;99.90;;;;;;5082533;28;20293;-59
2023/04/07 06:02:31;;;;;;;13.93;7.97;;;9.00;99.90;;;;;;5085313;28;20247;-58
2023/04/07 06:04:58;;;;;;;13.83;7.70;;;9.00;99.90;;;;;;5090141;28;20206;-60
2023/04/07 06:07:25;;;;;;;17.27;7.43;;;9.00;99.90;;;;;;5094780;28;20240;-58
2023/04/07 06:09:52;;;;;;;17.47;7.73;;;8.90;99.90;;;;;;5090747;28;20241;-58
2023/04/07 06:12:19;;;;;;;24.07;8.40;;;9.10;99.90;;;;;;5087120;28;20339;-58
2023/04/07 06:14:52;;;;;;;17.30;7.43;;;9.00;99.90;;;;;;5083729;28;21325;-59
2023/04/07 06:17:19;;;;;;;19.60;8.60;;;9.00;99.90;;;;;;5074536;28;20200;-60
2023/04/07 06:19:46;;;;;;;18.57;9.10;;;9.10;99.90;;;;;;5067101;28;20195;-58
2023/04/07 06:22:13;;;;;;;13.47;6.93;;;9.10;99.90;;;;;;5090580;28;20591;-58
2023/04/07 06:24:40;;;;;;;16.07;8.10;;;9.10;99.90;;;;;;5089967;28;21137;-58
2023/04/07 06:27:07;;;;;;;18.27;7.43;;;9.20;99.90;;;;;;5092601;28;20207;-62
2023/04/07 06:29:35;;;;;;;16.10;8.00;;;9.10;99.90;;;;;;5093295;28;20211;-58
2023/04/07 06:32:02;;;;;;;13.87;6.57;;;9.20;99.90;;;;;;5074727;28;20839;-58
2023/04/07 06:34:29;;;;;;;15.33;7.13;;;9.20;99.90;;;;;;5093306;28;20295;-58
2023/04/07 06:36:56;;;;;;;12.13;7.53;;;9.20;99.90;;;;;;5094035;28;20194;-58
2023/04/07 06:39:26;;;;;;;13.67;7.70;;;9.20;99.90;;;;;;5091626;28;20198;-59
2023/04/07 06:41:53;;;;;;;12.23;7.07;;;9.20;99.90;;;;;;5093843;28;20268;-59
2023/04/07 06:44:20;;;;;;;12.10;6.83;;;9.30;99.90;;;;;;5093292;28;20291;-58
2023/04/07 06:46:49;;;;;;;11.77;6.23;;;9.40;99.90;;;;;;5074586;28;20728;-58
2023/04/07 06:49:16;;;;;;;11.77;6.27;;;9.40;99.90;;;;;;5093989;27;20186;-59
2023/04/07 06:51:43;;;;;;;16.17;7.03;;;9.30;99.90;;;;;;5095040;28;20217;-58
2023/04/07 06:54:13;;;;;;;8.97;5.73;;;9.40;99.90;;;;;;5091558;28;20228;-62
2023/04/07 06:56:41;;;;;;;11.90;6.03;;;9.40;99.90;;;;;;5086215;28;20242;-60
2023/04/07 06:59:09;;;;;;;10.80;5.90;;;9.50;99.90;;;;;;5087350;28;20674;-58
2023/04/07 07:01:36;;;;;;;11.37;5.57;;;9.50;99.90;;;;;;5087971;28;20206;-59
2023/04/07 07:04:05;;;;;;;7.17;3.97;;;9.50;99.90;;;;;;5071861;28;20199;-58
2023/04/07 07:06:32;;;;;;;5.03;4.20;;;9.30;99.90;;;;;;5090898;28;20557;-58
2023/04/07 07:08:59;;;;;;;6.20;3.93;;;9.20;99.90;;;;;;5090744;28;20223;-60
2023/04/07 07:11:26;;;;;;;8.60;4.07;;;9.20;99.90;;;;;;5083641;28;20232;-58
2023/04/07 07:13:54;;;;;;;7.07;3.60;;;9.30;99.90;;;;;;5064871;28;20195;-59
2023/04/07 07:16:22;;;;;;;9.63;3.70;;;9.30;99.90;;;;;;5065563;28;20213;-63
2023/04/07 07:18:50;;;;;;;5.50;3.10;;;9.40;99.90;;;;;;5050716;28;20224;-59
2023/04/07 07:21:18;;;;;;;4.80;2.70;;;9.30;99.90;;;;;;5049711;28;20207;-60
2023/04/07 07:23:45;;;;;;;6.80;2.87;;;9.30;99.90;;;;;;5063362;28;20566;-59
2023/04/07 07:26:12;;;;;;;7.30;3.23;;;9.40;99.90;;;;;;5072461;28;20207;-59
2023/04/07 07:28:39;;;;;;;7.70;3.63;;;9.40;99.90;;;;;;5064533;28;21340;-59
2023/04/07 07:31:12;;;;;;;6.43;2.87;;;9.40;99.90;;;;;;5038088;28;20204;-59
2023/04/07 07:33:40;;;;;;;6.23;3.23;;;9.50;99.90;;;;;;5064685;28;20199;-59
2023/04/07 07:36:07;;;;;;;7.17;3.30;;;9.50;99.90;;;;;;5067529;28;20222;-59
2023/04/07 07:38:35;;;;;;;7.37;3.20;;;9.50;99.90;;;;;;5049548;28;20211;-58
2023/04/07 07:41:05;;;;;;;6.57;2.83;;;9.50;99.90;;;;;;5069905;28;20202;-59
2023/04/07 07:43:32;;;;;;;5.77;3.17;;;9.60;99.90;;;;;;5048850;28;20202;-59
2023/04/07 07:45:58;;;;;;;5.07;3.20;;;9.60;99.90;;;;;;5063812;28;20205;-59
2023/04/07 07:48:25;;;;;;;5.90;2.93;;;9.50;99.90;;;;;;5062575;28;20750;-59
2023/04/07 07:50:52;;;;;;;9.50;3.67;;;9.60;99.90;;;;;;5052799;28;20208;-59
2023/04/07 07:53:19;;;;;;;10.27;3.50;;;9.70;99.90;;;;;;5059810;28;20207;-59
2023/04/07 07:55:46;;;;;;;7.97;3.10;;;9.60;99.90;;;;;;5066658;28;20261;-60
2023/04/07 07:58:13;;;;;;;3.77;2.67;;;9.60;99.90;;;;;;5047958;28;20211;-59
2023/04/07 08:00:40;;;;;;;7.87;3.13;;;9.50;99.90;;;;;;5075029;28;20200;-59
2023/04/07 08:03:07;;;;;;;10.50;2.57;;;9.50;99.90;;;;;;5073435;28;20557;-59
2023/04/07 08:05:34;;;;;;;5.17;2.53;;;9.40;99.90;;;;;;5072370;28;21064;-59
2023/04/07 08:08:01;;;;;;;7.00;2.40;;;9.30;99.90;;;;;;5061036;28;20248;-59
2023/04/07 08:10:28;;;;;;;6.33;2.60;;;9.30;99.90;;;;;;5073165;28;20454;-60
2023/04/07 08:12:55;;;;;;;4.87;2.40;;;9.40;99.90;;;;;;5070810;28;20297;-59
2023/04/07 08:15:22;;;;;;;4.40;2.30;;;9.50;99.90;;;;;;5073634;28;20219;-59
2023/04/07 08:17:49;;;;;;;10.07;2.20;;;9.60;99.90;;;;;;5075710;28;20522;-59
2023/04/07 08:20:16;;;;;;;2.87;2.23;;;9.70;99.90;;;;;;5073775;28;20199;-59
2023/04/07 08:22:43;;;;;;;2.50;2.00;;;9.80;99.90;;;;;;5073860;28;20699;-59
2023/04/07 08:25:10;;;;;;;8.70;2.47;;;9.80;99.90;;;;;;5074657;28;20199;-59
2023/04/07 08:27:37;;;;;;;5.67;2.30;;;9.80;99.90;;;;;;5057699;28;20223;-59
2023/04/07 08:30:06;;;;;;;4.23;2.00;;;9.70;99.90;;;;;;5075211;28;20197;-59
2023/04/07 08:32:44;;;;;;;7.30;2.30;;;9.80;99.90;;;;;;5071265;28;20271;-58
2023/04/07 08:35:12;;;;;;;5.23;2.20;;;9.90;99.90;;;;;;5075736;28;20210;-59
2023/04/07 08:37:40;;;;;;;5.13;2.07;;;10.10;99.90;;;;;;5071983;28;20257;-59
2023/04/07 08:40:07;;;;;;;7.23;2.70;;;10.10;99.90;;;;;;5075484;28;20199;-59
2023/04/07 08:42:39;;;;;;;3.13;2.23;;;10.00;99.90;;;;;;5073452;28;20725;-59
2023/04/07 08:45:07;;;;;;;11.03;2.20;;;9.90;99.90;;;;;;5074903;28;20221;-63
2023/04/07 08:47:36;;;;;;;4.23;1.90;;;9.90;99.90;;;;;;5079050;28;21184;-59
2023/04/07 08:50:08;;;;;;;7.60;1.97;;;9.90;99.90;;;;;;5075526;28;20195;-58
2023/04/07 08:52:45;;;;;;;4.57;2.20;;;9.80;99.90;;;;;;5053967;28;20630;-59
2023/04/07 08:55:12;;;;;;;6.23;2.10;;;9.80;99.90;;;;;;5069700;28;20233;-58
2023/04/07 08:57:40;;;;;;;7.27;2.40;;;10.00;99.90;;;;;;5062625;28;20215;-59
2023/04/07 09:00:08;;;;;;;5.37;2.10;;;10.10;99.90;;;;;;5045498;28;20901;-59
2023/04/07 09:02:39;;;;;;;8.87;2.50;;;10.00;99.90;;;;;;5066673;28;20199;-60
2023/04/07 09:05:07;;;;;;;7.47;2.47;;;10.00;99.90;;;;;;5064209;28;20193;-60
2023/04/07 09:07:36;;;;;;;4.43;1.90;;;9.90;99.90;;;;;;5050774;28;20295;-60
2023/04/07 09:10:03;;;;;;;5.97;2.27;;;10.10;99.90;;;;;;5066236;28;20823;-60
2023/04/07 09:12:31;;;;;;;6.17;2.40;;;10.20;99.90;;;;;;5070448;28;20243;-59
2023/04/07 09:14:59;;;;;;;5.07;2.17;;;10.30;99.90;;;;;;5067817;28;20208;-62
2023/04/07 09:17:27;;;;;;;4.30;1.90;;;10.20;99.90;;;;;;5067118;28;20281;-61
2023/04/07 09:19:59;;;;;;;7.40;2.00;;;10.20;99.90;;;;;;5073358;28;20221;-60
2023/04/07 09:22:44;;;;;;;9.77;2.00;;;10.20;99.90;;;;;;5068952;28;20207;-60
2023/04/07 09:25:15;;;;;;;7.17;2.00;;;10.10;99.90;;;;;;5039047;28;20203;-61
2023/04/07 09:27:55;;;;;;;4.37;1.80;;;10.20;99.90;;;;;;5063437;28;20195;-60
2023/04/07 09:30:22;;;;;;;8.07;2.70;;;10.20;99.90;;;;;;5060983;28;20202;-59
2023/04/07 09:32:50;;;;;;;6.87;2.20;;;10.10;99.90;;;;;;5059239;28;20207;-59
2023/04/07 09:35:17;;;;;;;3.80;1.97;;;10.00;99.90;;;;;;5066381;28;20235;-61
2023/04/07 09:38:06;;;;;;;6.23;2.23;;;10.00;99.90;;;;;;5067616;28;20194;-59
2023/04/07 09:40:35;;;;;;;6.80;1.87;;;9.90;99.90;;;;;;5064997;28;20328;-59
2023/04/07 09:43:04;;;;;;;3.47;1.50;;;10.10;99.90;;;;;;5046490;28;20295;-62
2023/04/07 09:45:33;;;;;;;5.77;1.70;;;10.20;99.90;;;;;;5068943;28;20614;-59
2023/04/07 09:48:07;;;;;;;3.93;1.40;;;10.20;99.90;;;;;;5068406;28;20218;-59
2023/04/07 09:50:40;;;;;;;4.70;1.77;;;10.20;99.90;;;;;;5073244;28;20199;-59
2023/04/07 09:53:07;;;;;;;3.37;1.80;;;10.40;99.90;;;;;;5071346;28;20565;-59
2023/04/07 09:55:35;;;;;;;8.20;1.60;;;10.50;99.90;;;;;;5067374;28;20205;-59
2023/04/07 09:58:05;;;;;;;4.07;2.10;;;10.50;99.90;;;;;;5064302;28;20253;-59
2023/04/07 10:00:34;;;;;;;5.50;1.87;;;10.50;99.90;;;;;;5069928;28;20757;-65
2023/04/07 10:03:02;;;;;;;3.83;1.70;;;10.50;99.90;;;;;;5054523;28;20982;-64
2023/04/07 10:05:31;;;;;;;4.20;1.60;;;10.50;99.90;;;;;;5069526;28;20211;-59
2023/04/07 10:08:00;;;;;;;6.07;2.03;;;10.50;99.90;;;;;;5067646;28;20214;-59
2023/04/07 10:10:27;;;;;;;3.77;1.67;;;10.40;99.90;;;;;;5064585;28;20204;-59
2023/04/07 10:12:56;;;;;;;5.07;2.47;;;10.30;99.90;;;;;;5049795;28;20689;-59
2023/04/07 10:15:23;;;;;;;8.83;2.17;;;10.40;99.90;;;;;;5069514;28;20567;-59
2023/04/07 10:17:50;;;;;;;5.03;2.00;;;10.30;99.90;;;;;;5042279;28;20236;-59
2023/04/07 10:20:21;;;;;;;9.67;2.43;;;10.30;99.90;;;;;;5071799;28;20200;-59
2023/04/07 10:22:52;;;;;;;5.40;2.67;;;10.30;99.90;;;;;;5073224;28;20318;-59
2023/04/07 10:25:22;;;;;;;7.67;2.63;;;10.20;99.90;;;;;;5071073;28;20211;-59
2023/04/07 10:27:59;;;;;;;6.87;2.60;;;10.30;99.90;;;;;;5072587;28;20619;-59
2023/04/07 10:30:29;;;;;;;6.70;2.53;;;10.30;99.90;;;;;;5069314;28;20217;-59
2023/04/07 10:32:57;;;;;;;4.20;2.40;;;10.30;99.90;;;;;;5052478;28;20381;-59
2023/04/07 10:35:25;;;;;;;11.87;2.77;;;10.30;99.90;;;;;;5072506;28;20203;-60
2023/04/07 10:38:07;;;;;;;6.83;2.70;;;10.30;99.90;;;;;;5067300;28;20314;-59
2023/04/07 10:40:35;;;;;;;7.47;2.03;;;10.30;99.90;;;;;;5068562;28;20297;-59
2023/04/07 10:43:03;;;;;;;9.13;2.70;;;10.40;99.90;;;;;;5073744;28;20282;-59
2023/04/07 10:45:51;;;;;;;3.20;1.90;;;10.30;99.90;;;;;;5067103;28;20295;-59
2023/04/07 10:48:19;;;;;;;4.43;1.97;;;10.30;99.90;;;;;;5071877;28;20659;-59
2023/04/07 10:51:06;;;;;;;5.30;1.93;;;10.30;99.90;;;;;;5071056;28;20602;-59
2023/04/07 10:53:33;;;;;;;5.00;2.50;;;10.30;99.90;;;;;;5069495;28;20230;-60
2023/04/07 10:56:01;;;;;;;8.73;2.70;;;10.30;99.90;;;;;;5075841;28;20257;-59
2023/04/07 10:58:32;;;;;;;9.03;2.50;;;10.40;99.90;;;;;;5054512;28;20298;-63
2023/04/07 11:00:59;;;;;;;3.97;1.97;;;10.30;99.90;;;;;;5067493;28;20298;-59
2023/04/07 11:03:28;;;;;;;10.47;2.10;;;10.40;99.90;;;;;;5063445;28;20195;-59
2023/04/07 11:06:13;;;;;;;9.53;2.13;;;10.50;99.90;;;;;;5069133;28;20199;-58
2023/04/07 11:08:43;;;;;;;5.77;1.90;;;10.50;99.90;;;;;;5074970;28;20226;-58
2023/04/07 11:11:19;;;;;;;6.33;1.93;;;10.40;99.90;;;;;;5045300;28;20357;-58
2023/04/07 11:13:50;;;;;;;5.37;1.80;;;10.40;99.90;;;;;;5089621;28;20227;-58
2023/04/07 11:16:19;;;;;;;7.63;2.00;;;10.30;99.90;;;;;;5081652;28;20216;-58
2023/04/07 11:18:46;;;;;;;7.63;1.93;;;10.30;99.90;;;;;;5085782;28;20222;-59
2023/04/07 11:21:18;;;;;;;6.30;2.03;;;10.40;99.90;;;;;;5063144;28;20194;-58
2023/04/07 11:23:46;;;;;;;6.70;2.00;;;10.60;99.90;;;;;;5088436;28;20209;-59
2023/04/07 11:26:15;;;;;;;4.37;2.03;;;10.60;99.90;;;;;;5093202;28;21013;-58
2023/04/07 11:28:50;;;;;;;9.80;2.33;;;10.70;99.90;;;;;;5091776;28;20270;-59
2023/04/07 11:31:24;;;;;;;8.77;2.00;;;10.60;99.90;;;;;;5091439;28;20207;-66
2023/04/07 11:33:56;;;;;;;5.63;1.97;;;10.60;99.90;;;;;;5091513;28;20566;-60
2023/04/07 11:36:31;;;;;;;3.40;1.97;;;10.40;99.90;;;;;;5067527;28;21585;-59
2023/04/07 11:38:59;;;;;;;5.13;2.07;;;10.40;99.90;;;;;;5079787;28;20203;-59
2023/04/07 11:41:29;;;;;;;7.53;2.30;;;10.40;99.90;;;;;;5075744;28;20233;-59
2023/04/07 11:44:07;;;;;;;4.23;2.17;;;10.40;99.90;;;;;;5072674;28;20993;-60
2023/04/07 11:46:35;;;;;;;5.77;2.03;;;10.40;99.90;;;;;;5090579;28;20200;-59
2023/04/07 11:49:10;;;;;;;5.07;2.17;;;10.30;99.90;;;;;;5097451;28;20197;-60
2023/04/07 11:51:37;;;;;;;8.63;2.00;;;10.40;99.90;;;;;;5086278;28;20821;-59
2023/04/07 11:54:04;;;;;;;10.07;2.83;;;10.30;99.90;;;;;;5076888;28;20382;-60
2023/04/07 11:56:45;;;;;;;5.93;1.97;;;10.40;99.90;;;;;;5089117;28;20588;-59
2023/04/07 11:59:19;;;;;;;6.13;2.33;;;10.40;99.90;;;;;;5087890;28;20208;-66
2023/04/07 12:01:47;;;;;;;8.17;2.70;;;10.30;99.90;;;;;;5087987;28;20206;-61
2023/04/07 12:04:17;;;;;;;11.80;2.70;;;10.40;99.90;;;;;;5086283;28;20205;-59
2023/04/07 12:06:48;;;;;;;7.10;2.23;;;10.30;99.90;;;;;;5087918;28;20249;-58
2023/04/07 12:09:26;;;;;;;13.77;3.97;;;10.30;99.90;;;;;;5082201;28;20759;-58
2023/04/07 12:11:53;;;;;;;8.23;2.80;;;10.30;99.90;;;;;;5082663;27;20265;-58
2023/04/07 12:14:20;;;;;;;13.40;3.07;;;10.30;99.90;;;;;;5088564;28;20193;-59
2023/04/07 12:16:47;;;;;;;12.70;2.70;;;10.40;99.90;;;;;;5087996;28;20341;-58
2023/04/07 12:19:15;;;;;;;10.17;2.60;;;10.40;99.90;;;;;;5078605;28;20307;-57
2023/04/07 12:21:42;;;;;;;5.37;2.80;;;10.60;99.90;;;;;;5087682;28;20374;-56
2023/04/07 12:24:09;;;;;;;10.53;2.77;;;10.40;99.90;;;;;;5087718;28;20205;-58
2023/04/07 12:26:36;;;;;;;6.07;2.37;;;10.50;99.90;;;;;;5067706;28;20766;-57
2023/04/07 12:29:05;;;;;;;8.13;2.33;;;10.50;99.90;;;;;;5075191;28;20743;-57
2023/04/07 12:31:33;;;;;;;5.97;2.53;;;10.60;99.90;;;;;;5089746;28;20266;-57
2023/04/07 12:34:01;;;;;;;5.07;2.50;;;10.70;99.90;;;;;;5091504;28;20212;-57
2023/04/07 12:36:28;;;;;;;7.53;2.50;;;10.80;99.90;;;;;;5089199;28;20213;-57
2023/04/07 12:38:55;;;;;;;10.00;3.17;;;10.80;99.90;;;;;;5084926;28;20255;-57
2023/04/07 12:41:23;;;;;;;4.70;2.50;;;10.80;99.90;;;;;;5083274;28;20241;-57
2023/04/07 12:43:51;;;;;;;7.83;2.73;;;10.80;99.90;;;;;;5088174;28;20229;-59
2023/04/07 12:46:18;;;;;;;7.93;2.70;;;10.70;99.90;;;;;;5083831;28;20292;-57
2023/04/07 12:48:46;;;;;;;5.90;2.23;;;10.80;99.90;;;;;;5087700;28;20199;-58
2023/04/07 12:51:13;;;;;;;8.57;2.53;;;10.80;99.90;;;;;;5087481;28;20232;-57
2023/04/07 12:53:40;;;;;;;8.10;2.53;;;10.70;99.90;;;;;;5068332;28;20202;-57
2023/04/07 12:56:07;;;;;;;9.67;2.73;;;10.70;99.90;;;;;;5085998;28;20635;-57
2023/04/07 12:58:34;;;;;;;9.77;2.37;;;10.50;99.90;;;;;;5080659;28;20237;-57